Data for 05/19/2005

Time Sea-Level Adjusted Pressure Absolute Pressure Temperature Relative Humidity Dew Point   
(mb) (inHg) (mb) (inHg) (C) (F) (%) (C) (F)
00:05 1011 29.85 840 24.81 14.1 57.3 56 5.6 42
00:10 1011 29.85 840 24.81 14.1 57.4 57 5.7 42.2
00:15 1011 29.85 840 24.81 14 57.1 57 5.6 42.1
00:20 1011 29.85 840 24.81 13.9 57.1 57 5.5 41.9
00:25 1011 29.85 840 24.81 14 57.2 56 5.5 41.8
00:30 1011 29.85 840 24.81 13.9 57.1 56 5.4 41.8
00:35 1011 29.85 840 24.81 13.9 57 56 5.4 41.7
00:40 1011 29.85 840 24.81 13.8 56.9 57 5.4 41.8
00:45 1011 29.85 840 24.81 13.7 56.7 57 5.5 41.9
00:50 1011 29.85 840 24.81 13.5 56.4 58 5.6 42
00:55 1011 29.85 840 24.81 13.5 56.2 59 5.6 42.1
01:00 1011 29.85 840 24.81 13.3 56 59 5.6 42
01:05 1011 29.85 840 24.81 13.4 56.1 58 5.4 41.7
01:10 1011 29.85 840 24.81 13.5 56.3 58 5.5 41.9
01:15 1011 29.85 840 24.81 13.4 56.1 58 5.3 41.6
01:20 1011 29.85 840 24.81 13.5 56.2 59 5.6 42
01:25 1011 29.85 840 24.81 13.5 56.2 58 5.5 41.9
01:30 1011 29.85 840 24.81 13.6 56.5 58 5.6 42.1
01:35 1011 29.85 840 24.81 13.5 56.3 59 5.8 42.4
01:40 1011 29.85 840 24.81 13.5 56.4 60 5.9 42.6
01:45 1011 29.85 840 24.81 13.5 56.4 58 5.5 41.9
01:50 1011 29.85 840 24.81 14 57.2 56 5.4 41.6
01:55 1011 29.85 840 24.81 14.4 57.9 53 4.9 40.8
02:00 1011 29.85 840 24.81 14.8 58.6 53 5.3 41.6
02:05 1011 29.85 840 24.81 14.8 58.6 53 5.5 41.9
02:10 1011 29.85 840 24.81 14.1 57.3 59 6.2 43.2
02:15 1011 29.85 840 24.81 13.9 57 59 6.1 43
02:20 1011 29.85 840 24.81 13.5 56.2 60 6 42.8
02:25 1011 29.85 840 24.81 13.2 55.8 59 5.6 42
02:30 1011 29.85 840 24.81 13.5 56.2 60 5.9 42.6
02:35 1011 29.85 840 24.81 13.4 56.2 60 5.9 42.7
02:40 1011 29.85 840 24.81 13.4 56.1 60 5.7 42.3
02:45 1011 29.85 840 24.81 13.4 56.1 60 5.8 42.4
02:50 1011 29.85 840 24.81 13.5 56.4 56 5 41.1
02:55 1011 29.85 840 24.81 14.6 58.3 56 6 42.7
03:00 1011 29.85 840 24.81 14.3 57.8 59 6.6 43.8
03:05 1011 29.85 840 24.81 13.6 56.5 62 6.5 43.6
03:10 1011 29.85 841 24.83 13.2 55.8 65 6.8 44.2
03:15 1011 29.85 841 24.83 12.9 55.3 66 6.8 44.2
03:20 1011 29.85 841 24.83 12.7 54.9 67 6.9 44.4
03:25 1011 29.85 841 24.83 12.5 54.5 63 5.7 42.3
03:30 1011 29.85 841 24.83 13.5 56.3 60 6 42.9
03:35 1011 29.85 841 24.83 13.7 56.6 62 6.6 43.9
03:40 1012 29.88 841 24.83 13.4 56 65 7 44.7
03:45 1012 29.88 841 24.83 12.9 55.3 67 7 44.7
03:50 1011 29.85 841 24.83 12.5 54.5 69 7 44.6
03:55 1012 29.88 841 24.83 12.2 54 69 6.8 44.2
04:00 1012 29.88 841 24.83 12.3 54.2 68 6.7 44
04:05 1012 29.88 841 24.83 12.5 54.5 67 6.7 44
04:10 1012 29.88 841 24.83 12.6 54.7 67 6.8 44.2
04:15 1012 29.88 841 24.83 12.6 54.6 68 6.9 44.3
04:20 1012 29.88 841 24.83 12.6 54.6 68 7 44.5
04:25 1012 29.88 841 24.83 12.5 54.5 70 7.2 44.9
04:30 1012 29.88 841 24.83 12.4 54.2 71 7.3 45.2
04:35 1012 29.88 841 24.83 12.2 53.9 73 7.5 45.5
04:40 1012 29.88 841 24.83 12.1 53.8 74 7.7 45.9
04:45 1012 29.88 841 24.83 11.9 53.4 76 7.8 46.1
04:50 1012 29.88 841 24.83 11.8 53.3 76 7.8 46
04:55 1012 29.88 841 24.83 11.9 53.4 77 8.1 46.6
05:00 1012 29.88 841 24.83 11.8 53.2 78 8.2 46.7
05:05 1012 29.88 841 24.83 11.8 53.2 80 8.5 47.3
05:10 1012 29.88 841 24.83 11.6 52.9 82 8.7 47.7
05:15 1012 29.88 841 24.83 11.4 52.4 83 8.5 47.4
05:20 1012 29.88 841 24.83 11.2 52.2 86 8.9 48.1
05:25 1012 29.88 841 24.83 10.9 51.7 86 8.7 47.7
05:30 1012 29.88 841 24.83 10.7 51.3 85 8.4 47.1
05:35 1012 29.88 841 24.83 10.7 51.3 87 8.6 47.4
05:40 1012 29.88 841 24.83 10.6 51.1 85 8.2 46.8
05:45 1012 29.88 841 24.83 10.4 50.7 88 8.5 47.2
05:50 1012 29.88 841 24.83 10.2 50.4 87 8.2 46.8
05:55 1012 29.88 841 24.83 10.1 50.2 89 8.5 47.2
06:00 1012 29.88 841 24.83 10 50 90 8.5 47.3
06:05 1012 29.88 841 24.83 10.1 50.1 88 8.2 46.8
06:10 1012 29.88 841 24.83 10.4 50.8 86 8.2 46.8
06:15 1012 29.88 841 24.83 10.5 50.9 87 8.4 47.2
06:20 1012 29.88 841 24.83 10.5 50.9 87 8.4 47.1
06:25 1012 29.88 841 24.83 10.6 51 84 8 46.4
06:30 1012 29.88 841 24.83 10.7 51.3 84 8.1 46.6
06:35 1012 29.88 841 24.83 10.8 51.4 84 8.2 46.8
06:40 1012 29.88 841 24.83 10.8 51.4 82 7.9 46.3
06:45 1012 29.88 841 24.83 11.1 52 81 8 46.4
06:50 1012 29.88 841 24.83 11.1 52 83 8.4 47.1
06:55 1012 29.88 841 24.83 11 51.9 83 8.3 46.9
07:00 1012 29.88 841 24.83 11.1 51.9 82 8.2 46.7
07:05 1012 29.88 841 24.83 11.2 52.1 83 8.4 47.1
07:10 1012 29.88 841 24.83 11.2 52.1 83 8.5 47.3
07:15 1012 29.88 841 24.83 11.2 52.1 84 8.7 47.6
07:20 1012 29.88 841 24.83 11.3 52.4 83 8.5 47.3
07:25 1012 29.88 841 24.83 11.5 52.7 82 8.6 47.5
07:30 1012 29.88 841 24.83 11.7 53.1 80 8.5 47.2
07:35 1012 29.88 841 24.83 11.8 53.2 81 8.6 47.4
07:40 1012 29.88 841 24.83 11.9 53.4 79 8.4 47.1
07:45 1012 29.88 841 24.83 12 53.6 79 8.5 47.2
07:50 1012 29.88 841 24.83 12.1 53.7 78 8.4 47.1
07:55 1012 29.88 841 24.83 12.2 54 78 8.5 47.3
08:00 1012 29.88 841 24.83 12.5 54.4 81 9.2 48.6
08:05 1012 29.88 841 24.83 12.8 55 74 8.3 47
08:10 1012 29.88 842 24.86 13 55.3 74 8.5 47.3
08:15 1012 29.88 842 24.86 13.1 55.6 75 8.8 47.8
08:20 1012 29.88 842 24.86 13.2 55.7 77 9.2 48.6
08:25 1012 29.88 842 24.86 13.3 56 76 9.3 48.7
08:30 1012 29.88 842 24.86 13.6 56.5 73 8.9 48.1
08:35 1012 29.88 842 24.86 14 57.1 71 8.8 47.8
08:40 1013 29.91 842 24.86 14.4 57.9 72 9.4 48.8
08:45 1013 29.91 842 24.86 14.5 58.1 71 9.4 48.9
08:50 1013 29.91 842 24.86 14.2 57.6 76 10 50.1
08:55 1013 29.91 842 24.86 13 55.5 82 10.1 50.2
09:00 1013 29.91 843 24.89 12.4 54.3 85 10 49.9
09:05 1014 29.94 843 24.89 12.2 54 86 10 49.9
09:10 1014 29.94 843 24.89 12.2 53.9 86 9.9 49.9
09:15 1014 29.94 843 24.89 12.2 54 85 9.8 49.6
09:20 1014 29.94 843 24.89 12.3 54.1 83 9.5 49.2
09:25 1014 29.94 843 24.89 12.4 54.4 84 9.8 49.7
09:30 1014 29.94 843 24.89 12.7 54.9 82 9.8 49.6
09:35 1014 29.94 843 24.89 12.7 54.8 84 10 50
09:40 1014 29.94 843 24.89 12.6 54.6 83 9.7 49.4
09:45 1014 29.94 843 24.89 12.4 54.4 82 9.5 49.1
09:50 1014 29.94 843 24.89 13.4 56.2 78 9.7 49.5
09:55 1014 29.94 843 24.89 13.6 56.5 77 9.6 49.3
10:00 1014 29.94 843 24.89 13.3 55.9 82 10.3 50.6
10:05 1014 29.94 843 24.89 13.7 56.7 77 9.7 49.5
10:10 1014 29.94 843 24.89 13.8 56.9 77 9.9 49.8
10:15 1014 29.94 843 24.89 13.2 55.8 80 9.8 49.6
10:20 1014 29.94 843 24.89 12.9 55.3 80 9.6 49.2
10:25 1014 29.94 843 24.89 12.9 55.3 83 10.1 50.2
10:30 1014 29.94 843 24.89 13.5 56.3 76 9.4 49
10:35 1014 29.94 843 24.89 14 57.3 76 9.8 49.7
10:40 1014 29.94 843 24.89 14 57.1 74 9.5 49.1
10:45 1014 29.94 843 24.89 13.7 56.7 74 9.2 48.6
10:50 1014 29.94 843 24.89 13.8 56.8 70 8.5 47.3
10:55 1014 29.94 843 24.89 13.6 56.5 71 8.6 47.4
11:00 1014 29.94 843 24.89 13.8 56.8 74 9.2 48.6
11:05 1014 29.94 843 24.89 13.6 56.4 74 9.1 48.3
11:10 1014 29.94 843 24.89 13.7 56.6 74 9.2 48.5
11:15 1014 29.94 843 24.89 13.5 56.3 74 9.1 48.3
11:20 1014 29.94 843 24.89 12.7 54.9 77 8.7 47.7
11:25 1014 29.94 843 24.89 12.4 54.2 77 8.5 47.3
11:30 1014 29.94 843 24.89 12.3 54.1 80 8.9 47.9
11:35 1014 29.94 843 24.89 12.1 53.8 81 9 48.2
11:40 1015 29.97 844 24.92 11.9 53.4 80 8.6 47.5
11:45 1015 29.97 844 24.92 11.5 52.6 84 8.9 48.1
11:50 1015 29.97 844 24.92 11 51.7 86 8.8 47.8
11:55 1014 29.94 844 24.92 10.7 51.2 89 8.9 48
12:00 1015 29.97 844 24.92 10.5 51 90 9 48.2
12:05 1015 29.97 845 24.95 10.1 50.3 90 8.6 47.5
12:10 1016 30 845 24.95 9.5 49 94 8.5 47.3
12:15 1016 30 845 24.95 8.9 48 94 8 46.5
12:20 1016 30 845 24.95 8.9 48 96 8.2 46.8
12:25 1017 30.03 846 24.98 9 48.2 96 8.4 47.1
12:30 1016 30 846 24.98 9.2 48.6 94 8.3 47
12:35 1016 30 845 24.95 9.5 49.1 94 8.6 47.5
12:40 1016 30 846 24.98 10 50 93 8.9 48.1
12:45 1016 30 846 24.98 10.5 50.9 90 9 48.1
12:50 1017 30.03 846 24.98 11.3 52.3 88 9.3 48.8
12:55 1017 30.03 846 24.98 10.7 51.2 88 8.8 47.8
13:00 1017 30.03 846 24.98 10.2 50.4 86 8.1 46.5
13:05 1017 30.03 846 24.98 9.8 49.6 88 7.9 46.3
13:10 1017 30.03 846 24.98 10.2 50.3 92 8.9 48
13:15 1017 30.03 846 24.98 11 51.8 84 8.4 47
13:20 1017 30.03 846 24.98 10.7 51.2 85 8.3 46.9
13:25 1017 30.03 846 24.98 10.6 51.2 86 8.4 47.1
13:30 1017 30.03 846 24.98 11.2 52.1 83 8.4 47.1
13:35 1017 30.03 846 24.98 11.1 52 78 7.5 45.5
13:40 1016 30 846 24.98 10.8 51.5 80 7.5 45.5
13:45 1016 30 846 24.98 11 51.8 83 8.3 46.9
13:50 1016 30 846 24.98 11.5 52.6 82 8.6 47.5
13:55 1016 30 845 24.95 12.2 54 76 8.1 46.6
14:00 1016 30 845 24.95 12.3 54.2 71 7.3 45.1
14:05 1016 30 846 24.98 12.5 54.4 68 6.8 44.2
14:10 1016 30 846 24.98 13.1 55.5 71 8 46.3
14:15 1016 30 845 24.95 13.6 56.4 68 7.7 45.9
14:20 1016 30 845 24.95 13.9 57 65 7.6 45.7
14:25 1016 30 846 24.98 13.8 56.9 65 7.4 45.3
14:30 1016 30 846 24.98 13.4 56.1 65 6.9 44.5
14:35 1016 30 845 24.95 13.3 55.9 63 6.4 43.5
14:40 1016 30 845 24.95 13.5 56.3 62 6.4 43.5
14:45 1016 30 845 24.95 13.7 56.7 62 6.6 43.8
14:50 1016 30 845 24.95 13.7 56.6 66 7.4 45.4
14:55 1016 30 845 24.95 13.1 55.7 68 7.3 45.2
15:00 1016 30 845 24.95 13.6 56.5 63 6.7 44.1
15:05 1016 30 845 24.95 14.4 58 61 7.2 44.9
15:10 1016 30 845 24.95 14.6 58.2 60 6.9 44.4
15:15 1016 30 845 24.95 14.9 58.8 57 6.6 43.9
15:20 1016 30 845 24.95 14.5 58.1 58 6.4 43.5
15:25 1016 30 845 24.95 14.3 57.8 60 6.7 44.1
15:30 1016 30 845 24.95 14.7 58.5 58 6.5 43.8
15:35 1016 30 845 24.95 14.7 58.5 57 6.4 43.6
15:40 1016 30 845 24.95 15.2 59.4 55 6.2 43.2
15:45 1016 30 845 24.95 15.4 59.7 54 6.1 43
15:50 1016 30 845 24.95 16.1 60.9 51 6 42.9
15:55 1016 30 845 24.95 16.1 61 52 6.5 43.6
16:00 1015 29.97 845 24.95 15.5 59.8 54 6.4 43.5
16:05 1015 29.97 845 24.95 15.7 60.2 53 6.1 43
16:10 1015 29.97 845 24.95 16.7 62 51 6.5 43.6
16:15 1015 29.97 845 24.95 16.9 62.4 51 6.8 44.3
16:20 1015 29.97 845 24.95 16.6 61.9 53 7 44.7
16:25 1015 29.97 845 24.95 16.7 62.1 53 7.1 44.8
16:30 1016 30 845 24.95 16.7 62.1 54 7.4 45.3
16:35 1016 30 845 24.95 16.6 61.9 59 8.5 47.4
16:40 1016 30 845 24.95 16.1 60.9 63 9.1 48.4
16:45 1016 30 845 24.95 15.4 59.8 63 8.4 47.1
16:50 1016 30 845 24.95 15.3 59.5 68 9.5 49.1
16:55 1016 30 845 24.95 15.4 59.6 65 9 48.1
17:00 1016 30 845 24.95 15.2 59.3 69 9.6 49.3
17:05 1016 30 845 24.95 15.3 59.5 68 9.4 48.9
17:10 1016 30 845 24.95 15.1 59.2 70 9.6 49.4
17:15 1016 30 845 24.95 14.7 58.5 73 10.1 50.1
17:20 1016 30 845 24.95 14.4 57.8 74 9.8 49.6
17:25 1016 30 845 24.95 14 57.3 76 10 49.9
17:30 1016 30 845 24.95 14 57.2 78 10.3 50.5
17:35 1016 30 845 24.95 13.9 57 76 9.8 49.6
17:40 1016 30 845 24.95 13.9 57 73 9.2 48.6
17:45 1016 30 845 24.95 14.1 57.4 70 8.7 47.6
17:50 1016 30 845 24.95 14.2 57.6 68 8.4 47.2
17:55 1016 30 845 24.95 14.3 57.7 68 8.5 47.2
18:00 1016 30 845 24.95 14.3 57.8 69 8.7 47.7
18:05 1016 30 845 24.95 14 57.2 69 8.5 47.3
18:10 1016 30 845 24.95 13.9 56.9 68 8 46.5
18:15 1016 30 845 24.95 14 57.1 67 8 46.5
18:20 1016 30 845 24.95 14.2 57.5 66 8 46.4
18:25 1016 30 845 24.95 14.2 57.5 64 7.6 45.7
18:30 1016 30 845 24.95 14.3 57.8 64 7.7 45.9
18:35 1016 30 845 24.95 14.5 58 62 7.3 45.2
18:40 1016 30 845 24.95 14.5 58.2 62 7.4 45.3
18:45 1016 30 845 24.95 14.7 58.4 61 7.3 45.2
18:50 1016 30 845 24.95 14.7 58.5 60 7 44.6
18:55 1016 30 845 24.95 14.9 58.9 60 7.4 45.2
19:00 1016 30 845 24.95 15 59 61 7.6 45.6
19:05 1016 30 845 24.95 14.9 58.8 61 7.5 45.6
19:10 1016 30 845 24.95 15 58.9 61 7.5 45.6
19:15 1016 30 845 24.95 15.3 59.5 61 7.9 46.3
19:20 1016 30 845 24.95 15.4 59.8 61 8.1 46.6
19:25 1016 30 845 24.95 15.6 60.1 60 8 46.4
19:30 1016 30 845 24.95 15.5 59.9 58 7.4 45.2
19:35 1016 30 846 24.98 15.4 59.7 59 7.4 45.3
19:40 1016 30 846 24.98 15.2 59.3 66 8.9 48
19:45 1017 30.03 846 24.98 14.6 58.3 68 8.9 48.1
19:50 1017 30.03 846 24.98 14.2 57.6 70 8.8 47.8
19:55 1017 30.03 846 24.98 14.1 57.4 74 9.5 49.2
20:00 1017 30.03 846 24.98 14 57.2 75 9.8 49.6
20:05 1017 30.03 846 24.98 14.1 57.4 67 8.2 46.7
20:10 1017 30.03 846 24.98 14.5 58 69 8.9 47.9
20:15 1017 30.03 846 24.98 14.4 58 65 8.1 46.5
20:20 1017 30.03 846 24.98 14.3 57.7 68 8.5 47.4
20:25 1017 30.03 846 24.98 14 57.1 71 8.9 48
20:30 1017 30.03 846 24.98 13.9 57 71 8.8 47.8
20:35 1017 30.03 846 24.98 14 57.2 69 8.5 47.2
20:40 1017 30.03 846 24.98 14.1 57.5 69 8.6 47.5
20:45 1017 30.03 846 24.98 14.1 57.4 70 8.8 47.9
20:50 1017 30.03 846 24.98 13.8 56.9 70 8.6 47.4
20:55 1017 30.03 846 24.98 13.7 56.7 69 8.3 46.9
21:00 1017 30.03 846 24.98 13.9 57.1 69 8.5 47.2
21:05 1017 30.03 846 24.98 13.9 57 73 9.1 48.5
21:10 1017 30.03 846 24.98 13.4 56.2 74 8.9 47.9
21:15 1017 30.03 846 24.98 13.3 55.9 75 8.9 47.9
21:20 1017 30.03 846 24.98 13.2 55.8 74 8.7 47.6
21:25 1017 30.03 847 25.01 13.3 56 76 9.1 48.5
21:30 1017 30.03 847 25.01 13.4 56 74 8.9 48
21:35 1018 30.06 847 25.01 13.3 56 74 8.7 47.7
21:40 1018 30.06 847 25.01 13.3 55.9 73 8.5 47.3
21:45 1018 30.06 847 25.01 13.3 55.9 74 8.9 47.9
21:50 1018 30.06 847 25.01 13.1 55.5 75 8.7 47.7
21:55 1018 30.06 847 25.01 12.9 55.2 82 10 50
22:00 1017 30.03 847 25.01 12.8 55.1 79 9.2 48.6
22:05 1017 30.03 847 25.01 12.3 54.2 81 9.3 48.7
22:10 1018 30.06 847 25.01 12.2 53.9 83 9.5 49
22:15 1018 30.06 847 25.01 12.2 53.9 82 9.2 48.5
22:20 1018 30.06 847 25.01 11.9 53.4 80 8.6 47.5
22:25 1018 30.06 847 25.01 12.1 53.7 81 8.9 48.1
22:30 1018 30.06 847 25.01 12.3 54.1 81 9.2 48.5
22:35 1018 30.06 847 25.01 12.2 53.9 82 9.2 48.6
22:40 1018 30.06 847 25.01 11.9 53.4 81 8.7 47.7
22:45 1018 30.06 847 25.01 11.8 53.2 83 9.1 48.3
22:50 1018 30.06 847 25.01 11.9 53.4 81 8.7 47.6
22:55 1018 30.06 847 25.01 11.5 52.7 85 9.1 48.4
23:00 1018 30.06 847 25.01 11.2 52.2 85 8.9 48
23:05 1018 30.06 847 25.01 11.2 52.1 84 8.6 47.6
23:10 1018 30.06 847 25.01 11.3 52.3 84 8.7 47.7
23:15 1018 30.06 847 25.01 11.3 52.4 81 8.2 46.8
23:20 1018 30.06 847 25.01 11.4 52.4 81 8.2 46.8
23:25 1018 30.06 847 25.01 11.4 52.6 82 8.4 47.2
23:30 1018 30.06 847 25.01 11.3 52.3 82 8.4 47.2
23:35 1018 30.06 847 25.01 11.3 52.3 82 8.4 47.1
23:40 1018 30.06 847 25.01 11.2 52.1 84 8.6 47.4
23:45 1018 30.06 847 25.01 11 51.8 85 8.6 47.5
23:50 1018 30.06 847 25.01 10.8 51.4 85 8.4 47
23:55 1018 30.06 847 25.01 10.8 51.5 83 8.1 46.5
24:00 1018 30.06 847 25.01 10.7 51.3 85 8.3 47